Time;durP1;ratioP1;P1;durP2;ratioP2;P2;SDS_P1;SDS_P2;PMS_P1;PMS_P2;Temp;Humidity;BMP_temperature;BMP_pressure;BME280_temperature;BME280_humidity;BME280_pressure;Samples;Min_cycle;Max_cycle;Signal;HPM_P1;HPM_P2
2022/09/07 00:02:08;;;;;;;30.20;14.15;;;;;;;8.95;64.08;101083.63;1710480;83;21023;-60
2022/09/07 00:04:37;;;;;;;30.30;14.85;;;;;;;8.99;64.09;101086.36;1716242;83;21088;-59
2022/09/07 00:07:06;;;;;;;29.07;14.80;;;;;;;8.97;64.14;101085.67;1728044;83;21134;-61
2022/09/07 00:09:36;;;;;;;32.30;14.55;;;;;;;8.96;64.18;101086.70;1704550;83;21070;-58
2022/09/07 00:12:06;;;;;;;28.57;13.98;;;;;;;8.94;64.16;101084.65;1716102;83;21055;-59
2022/09/07 00:14:36;;;;;;;30.45;14.90;;;;;;;8.91;64.33;101084.48;1715327;81;21043;-58
2022/09/07 00:17:06;;;;;;;30.95;15.63;;;;;;;8.92;64.43;101086.19;1727166;83;21042;-59
2022/09/07 00:19:35;;;;;;;32.48;16.20;;;;;;;8.91;64.39;101089.95;1715355;83;21462;-58
2022/09/07 00:22:05;;;;;;;34.53;16.97;;;;;;;8.88;64.36;101092.50;1715536;83;21070;-58
2022/09/07 00:24:34;;;;;;;33.00;16.67;;;;;;;8.87;64.46;101090.80;1711181;83;21118;-60
2022/09/07 00:27:04;;;;;;;33.58;16.35;;;;;;;8.88;64.47;101087.04;1720069;82;21098;-58
2022/09/07 00:29:34;;;;;;;41.15;17.50;;;;;;;8.86;64.39;101090.45;1724457;83;21106;-59
2022/09/07 00:32:04;;;;;;;32.50;16.77;;;;;;;8.86;64.39;101085.50;1697969;83;21454;-59
2022/09/07 00:34:34;;;;;;;32.05;16.15;;;;;;;8.83;64.44;101081.23;1718012;82;21050;-59
2022/09/07 00:37:03;;;;;;;36.08;16.30;;;;;;;8.84;64.47;101078.84;1669570;85;21149;-58
2022/09/07 00:39:33;;;;;;;36.98;16.57;;;;;;;8.87;64.38;101077.13;1700045;83;21082;-60
2022/09/07 00:42:02;;;;;;;35.20;16.75;;;;;;;8.88;64.20;101076.11;1710752;83;21070;-59
2022/09/07 00:44:59;;;;;;;37.20;17.35;;;;;;;8.87;64.09;101075.77;1698015;83;21089;-59
2022/09/07 00:47:40;;;;;;;29.82;15.63;;;;;;;8.85;64.03;101073.72;1711797;81;21082;-59
2022/09/07 00:50:23;;;;;;;34.10;16.70;;;;;;;8.80;64.02;101073.88;1718671;81;21034;-59
2022/09/07 00:53:01;;;;;;;39.10;17.27;;;;;;;8.73;64.14;101071.48;1719966;83;21031;-59
2022/09/07 00:55:30;;;;;;;31.10;16.85;;;;;;;8.71;64.29;101063.46;1715218;83;21467;-59
2022/09/07 00:58:00;;;;;;;40.33;17.65;;;;;;;8.69;64.28;101064.66;1719700;83;21566;-58
2022/09/07 01:00:30;;;;;;;38.28;18.30;;;;;;;8.70;64.29;101066.36;1700122;83;21099;-60
2022/09/07 01:02:59;;;;;;;34.78;17.20;;;;;;;8.69;64.28;101070.12;1717519;83;21042;-58
2022/09/07 01:05:49;;;;;;;39.65;18.05;;;;;;;8.68;64.28;101064.31;1677907;84;21040;-59
2022/09/07 01:08:20;;;;;;;34.85;16.95;;;;;;;8.67;64.29;101062.60;1687696;82;21031;-59
2022/09/07 01:10:48;;;;;;;29.25;15.90;;;;;;;8.65;64.32;101060.55;1695505;84;21087;-60
2022/09/07 01:13:17;;;;;;;35.48;16.42;;;;;;;8.66;64.34;101060.89;1728000;82;21035;-59
2022/09/07 01:16:23;;;;;;;37.30;17.75;;;;;;;8.67;64.31;101057.14;1705829;83;21067;-61
2022/09/07 01:19:21;;;;;;;36.35;17.90;;;;;;;8.63;64.41;101062.09;1710459;83;21063;-60
2022/09/07 01:22:26;;;;;;;36.68;17.50;;;;;;;8.57;64.64;101054.05;1697122;83;21031;-59
2022/09/07 01:25:40;;;;;;;34.15;16.40;;;;;;;8.57;64.57;101050.47;1686656;83;21066;-60
2022/09/07 01:28:20;;;;;;;40.58;17.73;;;;;;;8.52;64.67;101048.25;1716634;83;21070;-59
2022/09/07 01:31:13;;;;;;;37.28;18.12;;;;;;;8.49;64.62;101049.95;1702816;83;21491;-58
2022/09/07 01:33:57;;;;;;;35.03;18.42;;;;;;;8.36;64.75;101045.97;1715425;83;21046;-60
2022/09/07 01:36:34;;;;;;;34.92;18.15;;;;;;;8.31;64.93;101047.80;1708909;82;21090;-59
2022/09/07 01:39:05;;;;;;;36.45;17.50;;;;;;;8.25;65.01;101048.47;1723500;83;21042;-60
2022/09/07 01:41:59;;;;;;;38.98;19.07;;;;;;;8.26;65.12;101040.11;1719729;83;21085;-59
2022/09/07 01:44:51;;;;;;;38.98;18.25;;;;;;;8.31;65.12;101039.61;1684232;84;21053;-59
2022/09/07 01:47:26;;;;;;;37.73;18.90;;;;;;;8.33;64.99;101038.08;1691198;84;21433;-59
2022/09/07 01:50:20;;;;;;;37.20;18.17;;;;;;;8.34;64.91;101041.19;1686939;84;21076;-60
2022/09/07 01:53:16;;;;;;;38.42;17.37;;;;;;;8.34;64.90;101043.41;1701477;84;21037;-59
2022/09/07 01:55:59;;;;;;;39.65;18.15;;;;;;;8.37;64.76;101040.84;1674378;84;21049;-60
2022/09/07 01:58:49;;;;;;;39.95;19.23;;;;;;;8.33;64.69;101038.96;1693585;84;21148;-60
2022/09/07 02:01:41;;;;;;;36.53;18.48;;;;;;;8.25;64.81;101041.14;1680314;84;21050;-58
2022/09/07 02:04:17;;;;;;;41.40;17.98;;;;;;;8.22;64.97;101031.91;1641082;86;21085;-58
2022/09/07 02:07:15;;;;;;;41.53;18.27;;;;;;;8.17;64.93;101034.29;1679113;85;21053;-59
2022/09/07 02:09:56;;;;;;;;;;;;;;;8.11;65.13;101030.86;1696189;84;21495;-59
2022/09/07 02:12:59;;;;;;;36.80;18.62;;;;;;;7.99;65.30;101038.16;1687368;84;20201;-60
2022/09/07 02:15:40;;;;;;;34.70;18.15;;;;;;;7.93;65.59;101035.07;1692240;84;21073;-59
2022/09/07 02:18:10;;;;;;;38.63;19.40;;;;;;;7.97;65.65;101032.02;1698442;83;21091;-58
2022/09/07 02:20:43;;;;;;;38.20;19.10;;;;;;;7.95;65.52;101028.08;1691278;83;21471;-59
2022/09/07 02:23:24;;;;;;;35.45;18.07;;;;;;;7.89;65.58;101031.47;1710827;83;21039;-59
2022/09/07 02:26:01;;;;;;;39.27;18.67;;;;;;;7.85;65.63;101030.95;1715704;82;21471;-60
2022/09/07 02:28:33;;;;;;;32.57;16.63;;;;;;;7.83;65.69;101027.53;1710976;83;21007;-59
2022/09/07 02:31:03;;;;;;;36.83;17.90;;;;;;;7.85;65.71;101025.48;1698096;83;21735;-59
2022/09/07 02:33:33;;;;;;;40.80;18.80;;;;;;;7.85;65.65;101026.86;1710617;83;21094;-59
2022/09/07 02:36:04;;;;;;;33.80;17.55;;;;;;;7.80;65.68;101021.52;1697854;83;21517;-59
2022/09/07 02:38:33;;;;;;;35.60;17.85;;;;;;;7.75;65.75;101021.16;1710443;82;21102;-59
2022/09/07 02:41:04;;;;;;;33.95;17.52;;;;;;;7.73;65.87;101024.05;1716217;82;21500;-60
2022/09/07 02:43:34;;;;;;;36.20;17.77;;;;;;;7.80;65.87;101019.67;1699344;83;21434;-60
2022/09/07 02:46:34;;;;;;;36.73;17.23;;;;;;;7.83;65.72;101024.80;1693563;83;21082;-60
2022/09/07 02:49:27;;;;;;;33.55;16.27;;;;;;;7.83;65.58;101017.98;1719414;83;21039;-59
2022/09/07 02:52:06;;;;;;;38.48;16.90;;;;;;;7.81;65.52;101020.02;1708417;83;21044;-58
2022/09/07 02:54:59;;;;;;;33.15;16.65;;;;;;;7.82;65.47;101020.88;1697991;83;21536;-58
2022/09/07 02:57:59;;;;;;;35.75;17.12;;;;;;;7.86;65.33;101023.62;1708904;83;21074;-58
2022/09/07 03:00:33;;;;;;;35.80;16.87;;;;;;;7.87;65.16;101023.96;1622073;88;21086;-60
2022/09/07 03:03:22;;;;;;;33.63;16.48;;;;;;;7.82;65.14;101020.36;1616708;88;21057;-59
2022/09/07 03:06:04;;;;;;;30.57;15.03;;;;;;;7.79;65.12;101017.08;1630425;88;21517;-59
2022/09/07 03:08:43;;;;;;;29.23;14.05;;;;;;;7.76;65.15;101015.53;1623768;88;21093;-59
2022/09/07 03:11:14;;;;;;;28.23;14.50;;;;;;;7.80;65.17;101014.22;1623000;88;21101;-59
2022/09/07 03:13:44;;;;;;;31.57;14.95;;;;;;;7.82;65.16;101017.64;1622979;88;21505;-60
2022/09/07 03:16:14;;;;;;;29.57;15.32;;;;;;;7.83;65.15;101019.34;1620365;88;21057;-60
2022/09/07 03:18:44;;;;;;;31.45;14.68;;;;;;;7.82;65.18;101019.00;1684378;83;21031;-60
2022/09/07 03:21:13;;;;;;;28.30;14.30;;;;;;;7.83;65.14;101017.13;1715395;83;21062;-60
2022/09/07 03:23:43;;;;;;;32.28;14.53;;;;;;;7.81;65.07;101016.44;1715534;82;21070;-59
2022/09/07 03:26:17;;;;;;;26.42;13.62;;;;;;;7.74;65.11;101016.72;1702775;83;21043;-60
2022/09/07 03:28:47;;;;;;;29.77;14.07;;;;;;;7.69;65.21;101017.72;1718995;82;21027;-60
2022/09/07 03:31:16;;;;;;;32.58;14.47;;;;;;;7.61;65.37;101019.91;1710568;83;21087;-61
2022/09/07 03:33:45;;;;;;;26.82;13.50;;;;;;;7.57;65.55;101015.80;1718377;81;21050;-60
2022/09/07 03:36:15;;;;;;;28.27;13.50;;;;;;;7.58;65.66;101016.14;1714786;81;21098;-60
2022/09/07 03:38:45;;;;;;;23.77;12.25;;;;;;;7.58;65.67;101016.14;1721490;81;21086;-59
2022/09/07 03:41:14;;;;;;;27.30;12.93;;;;;;;7.52;65.65;101021.73;1698147;83;21475;-62
2022/09/07 03:43:44;;;;;;;25.05;11.50;;;;;;;7.47;65.85;101012.34;1714294;83;21095;-60
2022/09/07 03:46:18;;;;;;;23.70;11.70;;;;;;;7.47;65.93;101022.73;1722060;83;21540;-61
2022/09/07 03:48:48;;;;;;;25.82;11.75;;;;;;;7.50;66.03;101021.55;1687686;85;21080;-58
2022/09/07 03:51:17;;;;;;;26.05;11.65;;;;;;;7.55;66.10;101021.92;1717743;83;21047;-60
2022/09/07 03:53:46;;;;;;;25.35;11.70;;;;;;;7.55;66.05;101014.59;1702096;83;21447;-59
2022/09/07 03:56:20;;;;;;;31.00;12.70;;;;;;;7.60;66.06;101025.01;1688069;83;21035;-59
2022/09/07 03:58:50;;;;;;;24.60;11.70;;;;;;;7.60;65.97;101022.28;1716364;82;21039;-59
2022/09/07 04:01:22;;;;;;;23.62;12.07;;;;;;;7.59;66.08;101022.80;1709945;82;21451;-60
2022/09/07 04:03:52;;;;;;;22.95;11.00;;;;;;;7.59;66.05;101021.43;1705458;83;21011;-59
2022/09/07 04:06:22;;;;;;;21.80;10.50;;;;;;;7.65;65.96;101028.10;1718030;83;21023;-60
2022/09/07 04:08:52;;;;;;;22.13;10.30;;;;;;;7.69;65.81;101029.48;1703839;83;21517;-60
2022/09/07 04:11:21;;;;;;;25.60;11.08;;;;;;;7.75;65.67;101025.25;1707016;83;21035;-59
2022/09/07 04:13:51;;;;;;;24.18;10.88;;;;;;;7.82;65.45;101031.28;1705324;83;21043;-60
2022/09/07 04:16:24;;;;;;;23.00;10.63;;;;;;;7.82;65.37;101031.78;1706636;83;21031;-61
2022/09/07 04:18:57;;;;;;;18.70;10.00;;;;;;;7.78;65.37;101027.14;1692979;83;21129;-60
2022/09/07 04:21:29;;;;;;;23.10;9.53;;;;;;;7.76;65.42;101035.14;1707490;83;21055;-59
2022/09/07 04:24:00;;;;;;;19.45;9.00;;;;;;;7.76;65.39;101031.91;1717842;82;21521;-64
2022/09/07 04:26:33;;;;;;;22.90;9.00;;;;;;;7.82;65.33;101032.64;1702434;83;21031;-61
2022/09/07 04:29:03;;;;;;;20.85;8.98;;;;;;;7.88;65.30;101031.98;1699934;83;21122;-59
2022/09/07 04:31:35;;;;;;;16.97;9.60;;;;;;;7.98;65.15;101033.72;1700275;83;21075;-60
2022/09/07 04:34:06;;;;;;;20.85;10.05;;;;;;;8.07;65.03;101028.62;1688175;83;21478;-60
2022/09/07 04:36:36;;;;;;;21.65;9.63;;;;;;;8.17;64.90;101033.44;1707053;83;21040;-59
2022/09/07 04:39:05;;;;;;;21.87;8.48;;;;;;;8.26;64.59;101030.55;1701595;82;21027;-61
2022/09/07 04:41:41;;;;;;;16.10;8.25;;;;;;;8.37;64.25;101033.52;1711392;83;21066;-60
2022/09/07 04:44:11;;;;;;;19.62;8.38;;;;;;;8.46;63.91;101031.17;1697920;83;21066;-59
2022/09/07 04:46:42;;;;;;;16.60;8.18;;;;;;;8.58;63.59;101034.42;1722300;83;21089;-61
2022/09/07 04:49:11;;;;;;;13.95;7.85;;;;;;;8.69;63.16;101035.97;1719708;83;21050;-59
2022/09/07 04:51:43;;;;;;;15.20;7.97;;;;;;;8.76;62.80;101029.65;1715341;83;21071;-59
2022/09/07 04:54:13;;;;;;;14.03;7.85;;;;;;;8.83;62.42;101033.92;1719270;83;21074;-59
2022/09/07 04:56:43;;;;;;;14.78;7.42;;;;;;;8.92;62.11;101034.26;1697933;83;21070;-60
2022/09/07 04:59:12;;;;;;;13.75;7.60;;;;;;;8.99;61.82;101031.17;1710453;83;21063;-60
2022/09/07 05:01:42;;;;;;;12.50;6.87;;;;;;;9.07;61.59;101039.38;1697969;83;21479;-60
2022/09/07 05:04:11;;;;;;;14.47;6.45;;;;;;;9.15;61.33;101034.44;1717093;83;21054;-60
2022/09/07 05:06:42;;;;;;;12.00;6.87;;;;;;;9.22;61.12;101039.55;1666493;84;21064;-63
2022/09/07 05:09:12;;;;;;;12.47;5.95;;;;;;;9.30;60.90;101040.05;1634533;87;21122;-60
2022/09/07 05:11:43;;;;;;;16.48;7.12;;;;;;;9.35;60.71;101035.77;1636652;86;21105;-59
2022/09/07 05:14:12;;;;;;;14.20;7.20;;;;;;;9.42;60.49;101030.45;1651476;86;21543;-60
2022/09/07 05:16:46;;;;;;;15.40;6.47;;;;;;;9.48;60.34;101033.86;1653239;86;21527;-59
2022/09/07 05:19:16;;;;;;;11.18;6.12;;;;;;;9.54;60.18;101036.75;1606055;89;21468;-60
2022/09/07 05:21:46;;;;;;;11.35;6.05;;;;;;;9.60;59.96;101035.19;1598950;89;21211;-59
2022/09/07 05:24:16;;;;;;;13.53;6.30;;;;;;;9.66;59.77;101031.75;1622405;85;21438;-60
2022/09/07 05:26:46;;;;;;;15.28;6.25;;;;;;;9.71;59.66;101027.97;1678191;84;22086;-60
2022/09/07 05:29:17;;;;;;;17.15;6.60;;;;;;;9.78;59.56;101033.10;1700092;83;21067;-60
2022/09/07 05:31:49;;;;;;;13.78;6.50;;;;;;;9.84;59.42;101030.17;1723831;83;21066;-60
2022/09/07 05:34:19;;;;;;;14.87;6.17;;;;;;;9.88;59.26;101027.42;1727705;81;21054;-60
2022/09/07 05:36:52;;;;;;;8.28;4.70;;;;;;;9.94;59.15;101018.49;1706175;83;21534;-59
2022/09/07 05:39:23;;;;;;;6.87;4.05;;;;;;;10.00;58.47;101019.14;1724697;82;21074;-60
2022/09/07 05:41:56;;;;;;;7.47;3.45;;;;;;;10.06;57.51;101019.80;1715294;83;21030;-60
2022/09/07 05:44:26;;;;;;;9.50;3.30;;;;;;;10.15;56.58;101023.34;1727026;82;21018;-61
2022/09/07 05:46:58;;;;;;;8.35;3.65;;;;;;;10.23;55.91;101019.22;1695076;83;21062;-59
2022/09/07 05:49:28;;;;;;;7.37;3.17;;;;;;;10.31;55.36;101015.06;1710870;83;21070;-62
2022/09/07 05:51:58;;;;;;;9.70;4.62;;;;;;;10.41;54.72;101010.75;1715004;83;21108;-60
2022/09/07 05:54:28;;;;;;;9.23;4.62;;;;;;;10.48;54.27;101021.31;1715947;83;21046;-60
2022/09/07 05:56:58;;;;;;;5.72;3.40;;;;;;;10.57;53.85;101016.63;1715785;83;21447;-61
2022/09/07 05:59:27;;;;;;;7.28;3.12;;;;;;;10.66;53.54;101016.90;1704437;83;21462;-64
2022/09/07 06:01:58;;;;;;;6.78;3.05;;;;;;;10.73;53.23;101013.76;1701578;83;21091;-60
2022/09/07 06:04:26;;;;;;;5.35;2.80;;;;;;;10.79;52.69;101015.24;1705574;83;21090;-60
2022/09/07 06:06:55;;;;;;;9.45;3.12;;;;;;;10.86;52.24;101019.47;1713237;83;21074;-61
2022/09/07 06:09:27;;;;;;;5.28;3.20;;;;;;;10.94;51.86;101019.92;1722941;83;21447;-60
2022/09/07 06:11:58;;;;;;;7.03;2.77;;;;;;;11.00;51.55;101018.66;1702681;83;21477;-60
2022/09/07 06:14:27;;;;;;;6.17;2.45;;;;;;;11.07;51.36;101018.28;1714546;82;21180;-61
2022/09/07 06:16:56;;;;;;;6.72;3.40;;;;;;;11.14;51.10;101018.39;1727677;83;21038;-61
2022/09/07 06:19:26;;;;;;;8.00;2.60;;;;;;;11.20;50.84;101019.53;1727842;83;21067;-59
2022/09/07 06:21:56;;;;;;;9.68;3.00;;;;;;;11.27;50.39;101024.08;1703285;83;21043;-60
2022/09/07 06:24:27;;;;;;;8.68;2.80;;;;;;;11.34;50.30;101022.81;1699801;83;21046;-59
2022/09/07 06:26:59;;;;;;;5.60;3.02;;;;;;;11.40;50.31;101017.42;1716618;83;21034;-63
2022/09/07 06:29:29;;;;;;;7.03;2.70;;;;;;;11.47;49.87;101016.67;1714470;83;21094;-59
2022/09/07 06:31:58;;;;;;;8.20;3.10;;;;;;;11.53;49.11;101016.77;1704551;83;21090;-61
2022/09/07 06:34:30;;;;;;;9.60;3.70;;;;;;;11.59;48.80;101021.50;1696662;83;21106;-60
2022/09/07 06:37:00;;;;;;;7.03;3.35;;;;;;;11.65;48.69;101018.00;1727615;82;21445;-60
2022/09/07 06:39:30;;;;;;;6.33;2.65;;;;;;;11.73;48.59;101030.28;1727994;82;21086;-61
2022/09/07 06:42:03;;;;;;;11.88;3.30;;;;;;;11.80;48.30;101035.91;1706749;83;21086;-60
2022/09/07 06:44:32;;;;;;;6.87;2.90;;;;;;;11.86;48.02;101034.29;1713315;83;21042;-60
2022/09/07 06:47:02;;;;;;;8.40;2.80;;;;;;;11.94;48.05;101036.41;1707266;83;21098;-60
2022/09/07 06:49:32;;;;;;;7.65;2.92;;;;;;;11.99;48.11;101032.56;1711395;83;21070;-61
2022/09/07 06:52:04;;;;;;;5.40;2.50;;;;;;;12.04;48.28;101036.96;1698111;83;21060;-60
2022/09/07 06:54:33;;;;;;;6.85;2.50;;;;;;;12.09;47.96;101031.41;1710842;83;21082;-61
2022/09/07 06:57:07;;;;;;;3.95;2.25;;;;;;;12.14;47.51;101035.81;1701962;83;21511;-60
2022/09/07 06:59:37;;;;;;;6.37;2.80;;;;;;;12.19;46.75;101037.45;1715599;83;21497;-61
2022/09/07 07:02:07;;;;;;;4.25;2.12;;;;;;;12.25;46.00;101036.69;1709312;83;21113;-60
2022/09/07 07:04:37;;;;;;;5.75;2.55;;;;;;;12.29;45.61;101031.98;1688878;82;21118;-60
2022/09/07 07:07:11;;;;;;;5.65;2.67;;;;;;;12.35;45.57;101030.36;1714099;83;21062;-59
2022/09/07 07:09:41;;;;;;;5.58;2.62;;;;;;;12.38;45.38;101033.60;1727505;83;21023;-59
2022/09/07 07:12:10;;;;;;;6.15;2.37;;;;;;;12.44;45.41;101036.63;1716340;82;21027;-59
2022/09/07 07:14:40;;;;;;;4.87;2.47;;;;;;;12.49;45.37;101036.89;1728165;83;21577;-61
2022/09/07 07:17:12;;;;;;;6.42;2.35;;;;;;;12.55;45.56;101037.48;1699222;83;21031;-60
2022/09/07 07:19:42;;;;;;;3.95;2.08;;;;;;;12.59;45.20;101034.67;1710764;81;21047;-60
2022/09/07 07:22:11;;;;;;;5.37;2.83;;;;;;;12.64;44.96;101037.16;1723658;83;21022;-61
2022/09/07 07:24:44;;;;;;;9.48;2.83;;;;;;;12.72;44.73;101032.58;1703844;83;21085;-65
2022/09/07 07:27:14;;;;;;;5.60;2.70;;;;;;;12.79;44.67;101035.72;1725663;82;21480;-61
2022/09/07 07:29:44;;;;;;;6.40;2.67;;;;;;;12.84;44.24;101033.23;1698155;83;21102;-59
2022/09/07 07:32:15;;;;;;;4.97;2.30;;;;;;;12.91;44.29;101031.91;1698421;83;21094;-61
2022/09/07 07:34:45;;;;;;;6.42;2.47;;;;;;;12.94;44.28;101023.27;1710801;82;21042;-61
2022/09/07 07:37:16;;;;;;;5.83;2.20;;;;;;;12.98;44.05;101024.05;1703046;83;21027;-65
2022/09/07 07:39:49;;;;;;;5.90;1.90;;;;;;;13.05;43.92;101023.29;1725576;83;21079;-58
2022/09/07 07:42:19;;;;;;;6.00;2.15;;;;;;;13.08;43.59;101020.98;1696587;83;21055;-62
2022/09/07 07:44:49;;;;;;;7.75;2.70;;;;;;;13.11;43.17;101021.11;1708758;82;21035;-65
2022/09/07 07:47:20;;;;;;;3.90;2.27;;;;;;;13.16;43.13;101018.09;1714155;82;21082;-60
2022/09/07 07:49:50;;;;;;;4.42;2.20;;;;;;;13.29;42.89;101023.73;1724425;82;21536;-62
2022/09/07 07:52:23;;;;;;;3.90;1.98;;;;;;;13.61;42.12;101014.52;1720184;83;21578;-64
2022/09/07 07:54:55;;;;;;;6.22;2.25;;;;;;;14.08;41.84;101018.39;1683348;83;21460;-62
2022/09/07 07:57:25;;;;;;;7.35;2.22;;;;;;;14.63;41.08;101013.21;1713477;82;21094;-62
2022/09/07 07:59:57;;;;;;;9.28;2.95;;;;;;;15.25;39.63;101016.14;1698966;83;21015;-62
2022/09/07 08:02:27;;;;;;;5.78;2.52;;;;;;;15.79;38.95;101005.38;1725195;83;21149;-62
2022/09/07 08:04:57;;;;;;;3.67;1.80;;;;;;;16.33;38.40;101001.34;1633231;88;21078;-62
2022/09/07 08:07:27;;;;;;;3.02;1.40;;;;;;;16.93;37.33;101004.64;1633106;86;21039;-63
2022/09/07 08:09:57;;;;;;;4.00;1.70;;;;;;;17.53;35.27;101009.11;1632642;88;21067;-62
2022/09/07 08:12:27;;;;;;;3.25;1.90;;;;;;;17.97;34.21;101008.88;1611781;88;21152;-64
2022/09/07 08:14:58;;;;;;;7.40;2.25;;;;;;;18.36;33.76;100992.30;1621897;88;21058;-63
2022/09/07 08:17:28;;;;;;;4.45;1.82;;;;;;;18.77;33.35;100995.37;1618404;86;21089;-61
2022/09/07 08:19:58;;;;;;;2.83;1.80;;;;;;;19.13;32.38;100986.05;1606287;88;21042;-61
2022/09/07 08:22:27;;;;;;;4.87;1.70;;;;;;;19.44;31.97;100989.02;1649574;83;21098;-63
2022/09/07 08:24:58;;;;;;;2.75;1.90;;;;;;;19.68;30.88;100981.03;1708006;83;21003;-62
2022/09/07 08:27:28;;;;;;;3.25;1.30;;;;;;;19.79;30.69;100989.90;1723889;83;21492;-63
2022/09/07 08:29:57;;;;;;;3.85;1.90;;;;;;;19.97;30.02;100989.45;1724979;83;21027;-64
2022/09/07 08:32:28;;;;;;;3.40;1.37;;;;;;;20.09;29.13;100993.04;1723217;82;21083;-64
2022/09/07 08:34:57;;;;;;;4.47;1.27;;;;;;;20.21;29.26;100979.97;1717146;83;21038;-67
2022/09/07 08:37:27;;;;;;;3.37;1.60;;;;;;;20.46;28.85;100976.88;1699886;83;21071;-62
2022/09/07 08:39:57;;;;;;;3.58;1.50;;;;;;;20.64;28.56;100959.11;1716671;83;21015;-67
2022/09/07 08:42:57;;;;;;;2.10;1.50;;;;;;;20.74;28.59;100955.96;1727728;83;21090;-65
2022/09/07 08:45:33;;;;;;;7.95;1.50;;;;;;;20.79;28.00;100948.23;1714856;82;21051;-63
2022/09/07 08:48:03;;;;;;;5.35;2.05;;;;;;;20.74;27.99;100955.11;1727528;81;21034;-62
2022/09/07 08:50:39;;;;;;;6.03;1.82;;;;;;;20.74;27.89;100952.33;1731372;81;21518;-62
2022/09/07 08:53:14;;;;;;;2.80;1.60;;;;;;;20.67;27.27;100951.09;1708934;83;21458;-62
2022/09/07 08:56:03;;;;;;;1.92;1.40;;;;;;;20.45;27.55;100945.95;1711736;81;21112;-62
2022/09/07 08:58:42;;;;;;;3.15;1.60;;;;;;;20.33;27.90;100950.16;1715361;83;21063;-63
2022/09/07 09:01:15;;;;;;;4.67;1.60;;;;;;;20.12;27.71;100946.64;1716424;81;21119;-60
2022/09/07 09:03:49;;;;;;;3.70;1.65;;;;;;;19.92;28.32;100947.91;1725510;81;21011;-66
2022/09/07 09:07:03;;;;;;;3.20;1.82;;;;;;;19.70;28.22;100944.09;1718206;83;21046;-64
2022/09/07 09:10:26;;;;;;;2.47;1.30;;;;;;;19.45;28.58;100936.52;1692422;84;21228;-64
2022/09/07 09:13:01;;;;;;;2.02;1.35;;;;;;;19.20;29.08;100931.22;1726661;81;21170;-64
2022/09/07 09:16:00;;;;;;;6.37;1.67;;;;;;;19.07;29.57;100926.74;1717891;83;21118;-64
2022/09/07 09:18:42;;;;;;;7.53;1.95;;;;;;;19.02;29.41;100934.11;1728022;82;21023;-60
2022/09/07 09:21:16;;;;;;;4.20;1.77;;;;;;;18.97;29.36;100929.27;1727704;81;21138;-63
2022/09/07 09:23:48;;;;;;;2.47;1.40;;;;;;;18.95;29.49;100924.50;1719505;81;21038;-63
2022/09/07 09:26:24;;;;;;;2.37;1.60;;;;;;;18.83;29.39;100913.89;1724838;83;21018;-62
2022/09/07 09:28:54;;;;;;;3.52;1.42;;;;;;;18.74;29.52;100917.56;1727910;81;21094;-64
2022/09/07 09:31:27;;;;;;;5.08;1.85;;;;;;;18.67;29.02;100914.89;1700826;83;21094;-64
2022/09/07 09:34:13;;;;;;;2.52;1.40;;;;;;;18.56;29.27;100923.17;1718856;83;21030;-63
2022/09/07 09:36:53;;;;;;;7.90;2.02;;;;;;;18.38;29.53;100914.38;1727059;83;21156;-63
2022/09/07 09:39:36;;;;;;;4.12;1.50;;;;;;;18.24;30.17;100919.81;1707693;83;21085;-65
2022/09/07 09:42:17;;;;;;;4.58;1.50;;;;;;;18.15;30.06;100907.33;1706849;83;21098;-63
2022/09/07 09:44:49;;;;;;;1.87;1.37;;;;;;;17.98;30.34;100903.82;1710741;83;21122;-63
2022/09/07 09:47:39;;;;;;;2.83;1.50;;;;;;;17.88;30.64;100899.91;1697944;83;21074;-64
2022/09/07 09:50:21;;;;;;;4.55;1.52;;;;;;;17.85;30.37;100899.84;1723161;83;21034;-62
2022/09/07 09:52:52;;;;;;;2.22;1.35;;;;;;;17.86;30.27;100899.30;1715927;81;21471;-63
2022/09/07 09:55:31;;;;;;;4.75;1.75;;;;;;;17.83;30.11;100888.14;1725934;81;21083;-62
2022/09/07 09:58:27;;;;;;;2.80;1.50;;;;;;;17.77;30.24;100888.23;1710368;82;21097;-62
2022/09/07 10:01:03;;;;;;;4.40;1.62;;;;;;;17.70;30.49;100892.47;1707156;83;21047;-62
2022/09/07 10:03:36;;;;;;;2.77;1.50;;;;;;;17.69;30.14;100883.31;1695075;83;21071;-63
2022/09/07 10:06:14;;;;;;;2.35;1.52;;;;;;;17.68;30.31;100888.55;1699645;83;21093;-63
2022/09/07 10:08:56;;;;;;;3.80;1.90;;;;;;;17.71;30.32;100877.53;1715509;83;21073;-64
2022/09/07 10:11:49;;;;;;;2.77;1.67;;;;;;;17.73;30.30;100876.76;1717408;83;21106;-64
2022/09/07 10:14:29;;;;;;;3.27;1.90;;;;;;;17.70;30.34;100878.61;1708618;81;21089;-64
2022/09/07 10:16:58;;;;;;;4.15;1.80;;;;;;;17.67;30.54;100871.61;1698230;83;21479;-63
2022/09/07 10:19:36;;;;;;;3.70;1.70;;;;;;;17.66;30.76;100871.30;1698697;83;21082;-63
2022/09/07 10:22:36;;;;;;;5.25;2.10;;;;;;;17.68;30.90;100875.23;1710542;83;21514;-62
2022/09/07 10:25:40;;;;;;;4.55;1.60;;;;;;;17.72;31.16;100874.53;1727783;82;21074;-66
2022/09/07 10:28:14;;;;;;;3.42;1.80;;;;;;;17.73;30.84;100859.59;1700850;83;21067;-66
2022/09/07 10:31:13;;;;;;;3.85;2.08;;;;;;;17.73;30.92;100865.67;1721348;83;21110;-63
2022/09/07 10:34:18;;;;;;;3.85;1.42;;;;;;;17.73;31.02;100865.13;1717452;82;21485;-63
2022/09/07 10:37:07;;;;;;;3.25;1.70;;;;;;;17.80;31.01;100862.81;1727138;83;21066;-62
2022/09/07 10:39:53;;;;;;;4.15;1.80;;;;;;;17.84;30.71;100858.48;1711706;83;21109;-62
2022/09/07 10:42:30;;;;;;;6.08;2.10;;;;;;;17.85;30.68;100851.86;1710159;83;21094;-64
2022/09/07 10:45:25;;;;;;;2.95;1.80;;;;;;;17.86;30.64;100843.31;1718032;83;21102;-64
2022/09/07 10:48:23;;;;;;;4.70;2.10;;;;;;;17.88;29.80;100843.92;1692471;85;21107;-61
2022/09/07 10:51:03;;;;;;;4.83;2.10;;;;;;;17.89;30.34;100844.77;1717592;83;21830;-61
2022/09/07 10:53:41;;;;;;;3.70;1.90;;;;;;;17.84;30.12;100845.47;1704205;83;21071;-65
2022/09/07 10:56:16;;;;;;;;;;;;;;;17.81;30.51;100840.94;1710944;83;20987;-63
2022/09/07 10:58:55;;;;;;;5.50;1.75;;;;;;;17.82;31.07;100844.86;1716141;83;20473;-62
2022/09/07 11:01:46;;;;;;;4.12;2.00;;;;;;;17.83;30.56;100845.17;1693112;83;21070;-62
2022/09/07 11:04:33;;;;;;;3.70;1.70;;;;;;;17.82;30.23;100848.17;1708431;83;21035;-63
2022/09/07 11:07:53;;;;;;;2.40;1.55;;;;;;;17.83;30.37;100844.32;1706007;83;21083;-61
2022/09/07 11:10:36;;;;;;;5.95;2.45;;;;;;;17.81;30.52;100836.24;1696478;83;21062;-64
2022/09/07 11:13:07;;;;;;;6.03;1.98;;;;;;;17.79;30.19;100828.70;1717106;82;21051;-62
2022/09/07 11:15:41;;;;;;;2.87;1.60;;;;;;;17.77;30.04;100828.63;1717708;82;21035;-62
2022/09/07 11:18:19;;;;;;;5.33;1.90;;;;;;;17.70;30.34;100824.56;1699088;83;21019;-62
2022/09/07 11:20:54;;;;;;;3.05;1.60;;;;;;;17.69;30.44;100818.17;1717654;83;21047;-63
2022/09/07 11:23:46;;;;;;;2.25;1.65;;;;;;;17.73;30.49;100817.16;1716907;82;21241;-63
2022/09/07 11:26:23;;;;;;;3.20;1.60;;;;;;;17.76;30.28;100812.54;1706432;83;21477;-61
2022/09/07 11:29:02;;;;;;;3.90;1.62;;;;;;;17.79;30.51;100813.45;1704891;83;21023;-62
2022/09/07 11:31:57;;;;;;;3.27;1.50;;;;;;;17.81;30.59;100807.14;1691731;83;21055;-64
2022/09/07 11:34:31;;;;;;;4.17;1.40;;;;;;;17.83;30.59;100809.67;1709373;83;21051;-61
2022/09/07 11:37:23;;;;;;;2.98;1.62;;;;;;;17.83;30.39;100804.13;1717533;83;21086;-63
2022/09/07 11:40:14;;;;;;;2.80;1.40;;;;;;;17.78;30.71;100811.77;1705769;83;21131;-62
2022/09/07 11:43:14;;;;;;;2.55;1.30;;;;;;;17.79;30.51;100792.66;1696185;83;21071;-63
2022/09/07 11:46:08;;;;;;;1.87;1.15;;;;;;;17.82;30.12;100781.64;1696000;83;22100;-65
2022/09/07 11:48:52;;;;;;;2.00;1.47;;;;;;;17.88;29.67;100788.48;1709088;83;21031;-63
2022/09/07 11:51:48;;;;;;;3.52;1.90;;;;;;;17.84;29.85;100787.26;1717766;83;21502;-61
2022/09/07 11:54:54;;;;;;;2.67;1.50;;;;;;;17.81;30.18;100778.57;1713545;82;21055;-64
2022/09/07 11:58:05;;;;;;;3.40;1.60;;;;;;;17.83;30.29;100785.56;1717540;83;21582;-63
2022/09/07 12:00:51;;;;;;;5.12;2.10;;;;;;;17.87;29.82;100785.40;1717714;83;21090;-63
2022/09/07 12:03:48;;;;;;;3.17;1.90;;;;;;;17.89;29.39;100779.62;1705270;83;21035;-63
2022/09/07 12:07:03;;;;;;;7.25;2.27;;;;;;;17.86;29.25;100776.78;1703168;83;21058;-63